createdAt,value
2022-07-29T00:00:37.087Z,0.00
2022-07-29T00:01:37.092Z,0.00
2022-07-29T00:02:37.118Z,0.00
2022-07-29T00:03:37.155Z,0.00
2022-07-29T00:04:37.166Z,0.00
2022-07-29T00:05:37.149Z,0.00
2022-07-29T00:06:37.106Z,0.00
2022-07-29T00:07:37.094Z,0.00
2022-07-29T00:08:37.088Z,0.00
2022-07-29T00:09:50.628Z,0.00
2022-07-29T00:10:37.107Z,0.00
2022-07-29T00:11:37.112Z,0.00
2022-07-29T00:12:37.160Z,0.00
2022-07-29T00:13:37.089Z,0.00
2022-07-29T00:14:37.089Z,0.00
2022-07-29T00:15:37.100Z,0.00
2022-07-29T00:16:37.242Z,0.00
2022-07-29T00:17:37.092Z,0.00
2022-07-29T00:18:37.093Z,0.00
2022-07-29T00:19:37.101Z,0.00
2022-07-29T00:20:37.095Z,0.00
2022-07-29T00:21:37.095Z,0.00
2022-07-29T00:22:37.108Z,0.00
2022-07-29T00:23:37.099Z,0.00
2022-07-29T00:24:37.098Z,0.00
2022-07-29T00:25:37.110Z,0.00
2022-07-29T00:26:37.114Z,0.00
2022-07-29T00:27:37.110Z,0.00
2022-07-29T00:28:37.115Z,0.00
2022-07-29T00:29:37.119Z,0.00
2022-07-29T00:30:37.099Z,0.00
2022-07-29T00:31:37.176Z,0.00
2022-07-29T00:32:37.101Z,0.00
2022-07-29T00:33:37.110Z,0.00
2022-07-29T00:34:37.112Z,0.00
2022-07-29T00:35:37.107Z,0.00
2022-07-29T00:36:37.099Z,0.00
2022-07-29T00:37:37.101Z,0.00
2022-07-29T00:38:37.103Z,0.00
2022-07-29T00:39:37.108Z,0.00
2022-07-29T00:40:37.130Z,0.00
2022-07-29T00:41:37.105Z,0.00
2022-07-29T00:42:37.111Z,0.00
2022-07-29T00:43:37.106Z,0.00
2022-07-29T00:44:37.114Z,0.00
2022-07-29T00:45:37.110Z,0.00
2022-07-29T00:46:37.150Z,0.00
2022-07-29T00:47:37.105Z,0.00
2022-07-29T00:48:37.193Z,0.00
2022-07-29T00:49:37.116Z,0.00
2022-07-29T00:50:37.108Z,0.00
2022-07-29T00:51:37.108Z,0.00
2022-07-29T00:52:37.122Z,0.00
2022-07-29T00:53:37.116Z,0.00
2022-07-29T00:54:39.225Z,0.00
2022-07-29T00:55:37.120Z,0.00
2022-07-29T00:56:37.129Z,0.00
2022-07-29T00:57:37.118Z,0.00
2022-07-29T00:58:37.119Z,0.00
2022-07-29T00:59:37.111Z,0.00
2022-07-29T01:00:37.247Z,0.00
2022-07-29T01:01:37.141Z,0.00
2022-07-29T01:02:37.217Z,0.00
2022-07-29T01:03:37.125Z,0.00
2022-07-29T01:04:37.111Z,0.00
2022-07-29T01:05:48.424Z,0.00
2022-07-29T01:06:37.119Z,0.00
2022-07-29T01:07:37.122Z,0.00
2022-07-29T01:08:37.121Z,0.00
2022-07-29T01:09:45.942Z,0.00
2022-07-29T01:10:37.130Z,0.00
2022-07-29T01:11:37.122Z,0.00
2022-07-29T01:12:37.135Z,0.00
2022-07-29T01:13:37.124Z,0.00
2022-07-29T01:14:37.123Z,0.00
2022-07-29T01:15:37.120Z,0.00
2022-07-29T01:16:37.216Z,0.00
2022-07-29T01:17:37.119Z,0.00
2022-07-29T01:18:37.145Z,0.00
2022-07-29T01:19:37.122Z,0.00
2022-07-29T01:20:37.122Z,0.00
2022-07-29T01:21:37.128Z,0.00
2022-07-29T01:22:37.120Z,0.00
2022-07-29T01:23:37.126Z,0.00
2022-07-29T01:24:37.125Z,0.00
2022-07-29T01:25:37.129Z,0.00
2022-07-29T01:26:37.122Z,0.00
2022-07-29T01:27:37.127Z,0.00
2022-07-29T01:28:37.125Z,0.00
2022-07-29T01:29:40.415Z,0.00
2022-07-29T01:30:37.123Z,0.00
2022-07-29T01:31:37.388Z,0.00
2022-07-29T01:32:37.127Z,0.00
2022-07-29T01:33:37.130Z,0.00
2022-07-29T01:34:37.118Z,0.00
2022-07-29T01:35:37.136Z,0.00
2022-07-29T01:36:37.122Z,0.00
2022-07-29T01:37:37.133Z,0.00
2022-07-29T01:38:37.122Z,0.00
2022-07-29T01:39:37.139Z,0.00
2022-07-29T01:40:37.130Z,0.00
2022-07-29T01:41:37.177Z,0.00
2022-07-29T01:42:37.123Z,0.00
2022-07-29T01:43:37.122Z,0.00
2022-07-29T01:44:37.125Z,0.00
2022-07-29T01:45:37.161Z,0.00
2022-07-29T01:46:37.173Z,0.00
2022-07-29T01:47:37.135Z,0.00
2022-07-29T01:48:37.143Z,0.00
2022-07-29T01:49:37.148Z,0.00
2022-07-29T01:50:37.125Z,0.00
2022-07-29T01:51:37.142Z,0.00
2022-07-29T01:52:37.133Z,0.00
2022-07-29T01:53:37.992Z,0.00
2022-07-29T01:54:37.133Z,0.00
2022-07-29T01:55:37.135Z,0.00
2022-07-29T01:56:37.157Z,0.00
2022-07-29T01:57:37.125Z,0.00
2022-07-29T01:58:37.126Z,0.00
2022-07-29T01:59:37.120Z,0.00
2022-07-29T02:00:37.128Z,0.00
2022-07-29T02:01:37.175Z,0.00
2022-07-29T02:02:37.140Z,0.00
2022-07-29T02:03:37.124Z,0.00
2022-07-29T02:04:37.159Z,0.00
2022-07-29T02:05:37.127Z,0.00
2022-07-29T02:06:37.127Z,0.00
2022-07-29T02:07:37.152Z,0.00
2022-07-29T02:08:37.134Z,0.00
2022-07-29T02:09:37.141Z,0.00
2022-07-29T02:10:37.138Z,0.00
2022-07-29T02:11:37.140Z,0.00
2022-07-29T02:12:37.144Z,0.00
2022-07-29T02:13:37.125Z,0.00
2022-07-29T02:14:37.125Z,0.00
2022-07-29T02:15:37.123Z,0.00
2022-07-29T02:16:37.173Z,0.00
2022-07-29T02:17:39.878Z,0.00
2022-07-29T02:18:37.124Z,0.00
2022-07-29T02:19:37.122Z,0.00
2022-07-29T02:20:37.126Z,0.00
2022-07-29T02:21:37.130Z,0.00
2022-07-29T02:22:37.130Z,0.00
2022-07-29T02:23:50.421Z,0.00
2022-07-29T02:24:37.144Z,0.00
2022-07-29T02:25:38.419Z,0.00
2022-07-29T02:26:37.148Z,0.00
2022-07-29T02:27:37.129Z,0.00
2022-07-29T02:28:37.153Z,0.00
2022-07-29T02:29:37.126Z,0.00
2022-07-29T02:30:37.125Z,0.00
2022-07-29T02:31:37.203Z,0.00
2022-07-29T02:32:37.123Z,0.00
2022-07-29T02:33:37.128Z,0.00
2022-07-29T02:34:37.128Z,0.00
2022-07-29T02:35:37.128Z,0.00
2022-07-29T02:36:37.122Z,0.00
2022-07-29T02:37:37.166Z,0.00
2022-07-29T02:38:37.132Z,0.00
2022-07-29T02:39:37.142Z,0.00
2022-07-29T02:40:37.137Z,0.00
2022-07-29T02:41:37.135Z,0.00
2022-07-29T02:42:37.119Z,0.00
2022-07-29T02:43:37.125Z,0.00
2022-07-29T02:44:37.124Z,0.00
2022-07-29T02:45:37.159Z,0.00
2022-07-29T02:46:37.190Z,0.00
2022-07-29T02:47:41.348Z,0.00
2022-07-29T02:48:37.165Z,0.00
2022-07-29T02:49:37.124Z,0.00
2022-07-29T02:50:37.121Z,0.00
2022-07-29T02:51:43.708Z,0.00
2022-07-29T02:52:37.131Z,0.00
2022-07-29T02:53:37.134Z,0.00
2022-07-29T02:54:37.129Z,0.00
2022-07-29T02:55:37.139Z,0.00
2022-07-29T02:56:37.149Z,0.00
2022-07-29T02:57:55.052Z,0.00
2022-07-29T02:58:37.120Z,0.00
2022-07-29T02:59:37.120Z,0.00
2022-07-29T03:00:37.129Z,0.00
2022-07-29T03:01:37.149Z,0.00
2022-07-29T03:02:37.136Z,0.00
2022-07-29T03:03:37.120Z,0.00
2022-07-29T03:04:37.234Z,0.00
2022-07-29T03:05:37.121Z,0.00
2022-07-29T03:06:38.604Z,0.00
2022-07-29T03:07:37.138Z,0.00
2022-07-29T03:08:37.144Z,0.00
2022-07-29T03:09:37.134Z,0.00
2022-07-29T03:10:37.132Z,0.00
2022-07-29T03:11:42.321Z,0.00
2022-07-29T03:12:37.121Z,0.00
2022-07-29T03:13:37.121Z,0.00
2022-07-29T03:14:37.120Z,0.00
2022-07-29T03:15:37.173Z,0.00
2022-07-29T03:16:41.031Z,0.00
2022-07-29T03:17:37.123Z,0.00
2022-07-29T03:18:37.150Z,0.00
2022-07-29T03:19:37.119Z,0.00
2022-07-29T03:20:37.142Z,0.00
2022-07-29T03:21:37.124Z,0.00
2022-07-29T03:22:37.137Z,0.00
2022-07-29T03:23:37.124Z,0.00
2022-07-29T03:24:37.144Z,0.00
2022-07-29T03:25:37.116Z,0.00
2022-07-29T03:26:37.115Z,0.00
2022-07-29T03:27:37.120Z,0.00
2022-07-29T03:28:37.121Z,0.00
2022-07-29T03:29:37.120Z,0.00
2022-07-29T03:30:37.118Z,0.00
2022-07-29T03:31:37.178Z,0.00
2022-07-29T03:32:37.119Z,0.00
2022-07-29T03:33:37.168Z,0.00
2022-07-29T03:34:37.143Z,0.00
2022-07-29T03:35:37.126Z,0.00
2022-07-29T03:36:37.161Z,0.00
2022-07-29T03:37:37.142Z,5.63
2022-07-29T03:38:37.116Z,5.63
2022-07-29T03:39:37.124Z,5.63
2022-07-29T03:40:37.113Z,5.63
2022-07-29T03:41:37.117Z,5.63
2022-07-29T03:42:37.125Z,5.63
2022-07-29T03:43:37.115Z,5.63
2022-07-29T03:44:37.136Z,5.63
2022-07-29T03:45:37.116Z,11.25
2022-07-29T03:46:37.156Z,11.25
2022-07-29T03:47:50.063Z,11.25
2022-07-29T03:48:37.171Z,11.25
2022-07-29T03:49:37.134Z,11.25
2022-07-29T03:50:37.129Z,11.25
2022-07-29T03:51:37.130Z,11.25
2022-07-29T03:52:37.123Z,11.25
2022-07-29T03:53:37.118Z,16.88
2022-07-29T03:54:37.117Z,16.88
2022-07-29T03:55:37.109Z,16.88
2022-07-29T03:56:37.109Z,16.88
2022-07-29T03:57:37.119Z,16.88
2022-07-29T03:58:37.116Z,22.50
2022-07-29T03:59:37.111Z,22.50
2022-07-29T04:00:37.116Z,22.50
2022-07-29T04:01:37.127Z,22.50
2022-07-29T04:02:37.141Z,22.50
2022-07-29T04:03:37.208Z,22.50
2022-07-29T04:04:37.167Z,22.50
2022-07-29T04:05:37.130Z,22.50
2022-07-29T04:06:37.115Z,22.50
2022-07-29T04:07:37.108Z,22.50
2022-07-29T04:08:37.174Z,28.13
2022-07-29T04:09:37.111Z,28.13
2022-07-29T04:10:37.124Z,28.13
2022-07-29T04:12:03.815Z,28.13
2022-07-29T04:12:37.110Z,28.13
2022-07-29T04:13:37.105Z,33.75
2022-07-29T04:14:37.126Z,33.75
2022-07-29T04:15:37.195Z,33.75
2022-07-29T04:16:37.105Z,33.75
2022-07-29T04:17:37.127Z,33.75
2022-07-29T04:18:37.117Z,33.75
2022-07-29T04:19:37.127Z,33.75
2022-07-29T04:20:37.118Z,33.75
2022-07-29T04:21:37.114Z,33.75
2022-07-29T04:22:37.133Z,33.75
2022-07-29T04:23:53.134Z,33.75
2022-07-29T04:24:37.105Z,33.75
2022-07-29T04:25:37.108Z,39.38
2022-07-29T04:26:37.123Z,39.38
2022-07-29T04:27:37.109Z,39.38
2022-07-29T04:28:37.108Z,45.00
2022-07-29T04:29:37.115Z,45.00
2022-07-29T04:30:37.113Z,45.00
2022-07-29T04:31:37.178Z,50.63
2022-07-29T04:32:37.110Z,50.63
2022-07-29T04:33:37.194Z,50.63
2022-07-29T04:34:37.128Z,50.63
2022-07-29T04:35:38.587Z,50.63
2022-07-29T04:36:37.108Z,50.63
2022-07-29T04:37:37.115Z,50.63
2022-07-29T04:38:37.109Z,50.63
2022-07-29T04:39:37.107Z,50.63
2022-07-29T04:40:38.497Z,50.63
2022-07-29T04:41:37.153Z,50.63
2022-07-29T04:42:43.998Z,50.63
2022-07-29T04:43:37.106Z,56.25
2022-07-29T04:44:39.467Z,56.25
2022-07-29T04:45:37.116Z,56.25
2022-07-29T04:46:37.214Z,56.25
2022-07-29T04:47:37.115Z,56.25
2022-07-29T04:48:37.181Z,56.25
2022-07-29T04:49:37.112Z,56.25
2022-07-29T04:50:37.186Z,56.25
2022-07-29T04:51:37.107Z,56.25
2022-07-29T04:52:37.118Z,61.88
2022-07-29T04:53:37.131Z,61.88
2022-07-29T04:54:37.111Z,61.88
2022-07-29T04:55:37.138Z,61.88
2022-07-29T04:56:37.112Z,61.88
2022-07-29T04:57:37.111Z,61.88
2022-07-29T04:58:37.143Z,61.88
2022-07-29T04:59:37.113Z,61.88
2022-07-29T05:00:37.121Z,61.88
2022-07-29T05:01:37.161Z,61.88
2022-07-29T05:02:37.203Z,61.88
2022-07-29T05:03:37.132Z,61.88
2022-07-29T05:04:37.128Z,67.50
2022-07-29T05:05:37.129Z,67.50
2022-07-29T05:06:37.111Z,73.13
2022-07-29T05:07:37.111Z,78.75
2022-07-29T05:08:37.114Z,84.38
2022-07-29T05:09:37.157Z,90.00
2022-07-29T05:10:37.129Z,90.00
2022-07-29T05:11:37.149Z,95.63
2022-07-29T05:12:37.113Z,95.63
2022-07-29T05:13:45.837Z,95.63
2022-07-29T05:14:44.345Z,101.25
2022-07-29T05:16:41.136Z,101.25
2022-07-29T05:17:41.106Z,101.25
2022-07-29T05:19:45.094Z,95.63
2022-07-29T05:20:45.089Z,95.63
2022-07-29T05:22:49.102Z,78.75
2022-07-29T05:23:49.110Z,73.13
2022-07-29T05:25:44.641Z,61.88
2022-07-29T05:26:41.986Z,56.25
2022-07-29T05:28:46.032Z,45.00
2022-07-29T05:29:46.071Z,39.38
2022-07-29T05:31:50.049Z,33.75
2022-07-29T05:32:50.046Z,28.13
2022-07-29T05:34:54.094Z,28.13
2022-07-29T05:35:58.514Z,28.13
2022-07-29T05:37:58.030Z,33.75
2022-07-29T05:38:58.010Z,33.75
2022-07-29T05:41:02.018Z,39.38
2022-07-29T05:42:01.998Z,45.00
2022-07-29T05:44:05.991Z,50.63
2022-07-29T05:45:06.011Z,56.25
2022-07-29T05:47:10.000Z,73.13
2022-07-29T05:48:09.988Z,84.38
2022-07-29T05:50:13.985Z,163.13
2022-07-29T05:51:13.976Z,135.00
2022-07-29T05:53:19.890Z,236.25
2022-07-29T05:54:18.454Z,517.50
2022-07-29T05:56:21.975Z,866.25
2022-07-29T05:57:21.953Z,1181.25
2022-07-29T05:59:30.132Z,1113.75
2022-07-29T06:00:25.940Z,1040.63
2022-07-29T06:01:26.028Z,973.13
2022-07-29T06:02:25.949Z,675.00
2022-07-29T06:03:25.951Z,517.50
2022-07-29T06:04:25.990Z,348.75
2022-07-29T06:05:25.962Z,331.88
2022-07-29T06:06:26.014Z,253.13
2022-07-29T06:07:25.969Z,281.25
2022-07-29T06:08:25.975Z,292.50
2022-07-29T06:09:25.986Z,264.38
2022-07-29T06:10:26.241Z,315.00
2022-07-29T06:11:25.975Z,416.25
2022-07-29T06:12:25.989Z,489.38
2022-07-29T06:13:25.992Z,624.38
2022-07-29T06:14:25.997Z,658.13
2022-07-29T06:15:25.992Z,405.00
2022-07-29T06:16:29.838Z,320.63
2022-07-29T06:17:26.019Z,326.25
2022-07-29T06:18:26.005Z,309.38
2022-07-29T06:19:26.051Z,348.75
2022-07-29T06:20:26.933Z,691.88
2022-07-29T06:21:26.013Z,646.88
2022-07-29T06:22:26.018Z,343.13
2022-07-29T06:23:26.023Z,337.50
2022-07-29T06:24:26.028Z,365.63
2022-07-29T06:25:26.037Z,309.38
2022-07-29T06:26:30.748Z,258.75
2022-07-29T06:27:26.047Z,309.38
2022-07-29T06:28:26.044Z,348.75
2022-07-29T06:29:26.049Z,331.88
2022-07-29T06:30:26.186Z,326.25
2022-07-29T06:31:26.119Z,320.63
2022-07-29T06:32:27.399Z,292.50
2022-07-29T06:33:26.064Z,393.75
2022-07-29T06:34:26.091Z,360.00
2022-07-29T06:35:38.989Z,309.38
2022-07-29T06:36:26.090Z,450.00
2022-07-29T06:37:26.080Z,416.25
2022-07-29T06:38:33.703Z,371.25
2022-07-29T06:39:26.094Z,388.13
2022-07-29T06:40:26.212Z,247.50
2022-07-29T06:41:26.121Z,202.50
2022-07-29T06:42:26.114Z,180.00
2022-07-29T06:43:26.420Z,157.50
2022-07-29T06:44:26.138Z,135.00
2022-07-29T06:45:26.109Z,118.13
2022-07-29T06:46:26.196Z,106.88
2022-07-29T06:47:26.124Z,101.25
2022-07-29T06:48:26.142Z,95.63
2022-07-29T06:49:26.245Z,95.63
2022-07-29T06:50:26.139Z,95.63
2022-07-29T06:51:26.137Z,95.63
2022-07-29T06:52:26.133Z,95.63
2022-07-29T06:53:26.130Z,101.25
2022-07-29T06:54:26.135Z,106.88
2022-07-29T06:55:26.148Z,106.88
2022-07-29T06:56:26.148Z,106.88
2022-07-29T06:57:26.154Z,106.88
2022-07-29T06:58:26.150Z,106.88
2022-07-29T06:59:33.432Z,112.50
2022-07-29T07:00:26.171Z,118.13
2022-07-29T07:01:26.218Z,123.75
2022-07-29T07:02:26.188Z,135.00
2022-07-29T07:03:26.188Z,157.50
2022-07-29T07:04:26.179Z,196.88
2022-07-29T07:05:26.169Z,354.38
2022-07-29T07:06:26.189Z,1766.25
2022-07-29T07:07:26.168Z,1935.00
2022-07-29T07:08:26.174Z,1580.63
2022-07-29T07:09:26.182Z,1546.88
2022-07-29T07:10:26.177Z,1552.50
2022-07-29T07:11:26.197Z,1350.00
2022-07-29T07:12:26.235Z,1051.88
2022-07-29T07:13:26.215Z,832.50
2022-07-29T07:14:26.207Z,669.38
2022-07-29T07:15:39.035Z,618.75
2022-07-29T07:16:26.261Z,731.25
2022-07-29T07:17:26.257Z,495.00
2022-07-29T07:18:26.237Z,568.13
2022-07-29T07:19:26.255Z,562.50
2022-07-29T07:20:26.243Z,388.13
2022-07-29T07:21:26.247Z,500.63
2022-07-29T07:22:26.261Z,765.00
2022-07-29T07:23:26.268Z,703.13
2022-07-29T07:24:26.295Z,399.38
2022-07-29T07:25:26.295Z,736.88
2022-07-29T07:26:26.328Z,776.25
2022-07-29T07:27:26.337Z,765.00
2022-07-29T07:28:26.303Z,680.63
2022-07-29T07:29:26.310Z,860.63
2022-07-29T07:30:26.322Z,978.75
2022-07-29T07:31:26.393Z,956.25
2022-07-29T07:32:26.410Z,883.13
2022-07-29T07:33:26.343Z,838.13
2022-07-29T07:34:29.310Z,731.25
2022-07-29T07:35:26.376Z,770.63
2022-07-29T07:36:26.400Z,810.00
2022-07-29T07:37:26.398Z,753.75
2022-07-29T07:38:26.405Z,725.63
2022-07-29T07:39:26.411Z,697.50
2022-07-29T07:40:26.413Z,675.00
2022-07-29T07:41:26.478Z,675.00
2022-07-29T07:42:26.507Z,652.50
2022-07-29T07:43:26.469Z,646.88
2022-07-29T07:44:26.466Z,663.75
2022-07-29T07:45:26.581Z,630.00
2022-07-29T07:46:26.603Z,641.25
2022-07-29T07:47:28.029Z,652.50
2022-07-29T07:48:26.526Z,652.50
2022-07-29T07:49:26.626Z,663.75
2022-07-29T07:50:26.549Z,663.75
2022-07-29T07:51:26.577Z,675.00
2022-07-29T07:52:26.576Z,663.75
2022-07-29T07:53:26.603Z,658.13
2022-07-29T07:54:26.693Z,658.13
2022-07-29T07:55:26.653Z,646.88
2022-07-29T07:56:28.007Z,635.63
2022-07-29T07:57:26.654Z,635.63
2022-07-29T07:58:26.667Z,635.63
2022-07-29T07:59:26.675Z,652.50
2022-07-29T08:00:26.693Z,658.13
2022-07-29T08:01:26.785Z,663.75
2022-07-29T08:02:26.737Z,652.50
2022-07-29T08:03:26.743Z,517.50
2022-07-29T08:04:28.477Z,551.25
2022-07-29T08:05:26.772Z,461.25
2022-07-29T08:06:26.786Z,444.38
2022-07-29T08:07:26.804Z,500.63
2022-07-29T08:08:26.825Z,416.25
2022-07-29T08:09:29.758Z,466.88
2022-07-29T08:10:26.858Z,365.63
2022-07-29T08:11:26.864Z,483.75
2022-07-29T08:12:26.886Z,376.88
2022-07-29T08:13:26.890Z,388.13
2022-07-29T08:14:26.910Z,331.88
2022-07-29T08:15:26.921Z,517.50
2022-07-29T08:16:26.985Z,371.25
2022-07-29T08:17:26.951Z,365.63
2022-07-29T08:18:26.958Z,326.25
2022-07-29T08:19:26.985Z,348.75
2022-07-29T08:20:27.000Z,354.38
2022-07-29T08:21:27.036Z,348.75
2022-07-29T08:22:27.018Z,421.88
2022-07-29T08:23:29.298Z,455.63
2022-07-29T08:24:27.043Z,427.50
2022-07-29T08:25:27.056Z,360.00
2022-07-29T08:26:27.126Z,360.00
2022-07-29T08:27:43.376Z,365.63
2022-07-29T08:28:27.087Z,331.88
2022-07-29T08:29:27.095Z,320.63
2022-07-29T08:30:27.103Z,309.38
2022-07-29T08:31:27.132Z,298.13
2022-07-29T08:32:51.888Z,292.50
2022-07-29T08:33:27.141Z,270.00
2022-07-29T08:34:27.792Z,281.25
2022-07-29T08:35:28.470Z,303.75
2022-07-29T08:36:27.184Z,309.38
2022-07-29T08:37:27.177Z,320.63
2022-07-29T08:38:27.203Z,331.88
2022-07-29T08:39:27.221Z,320.63
2022-07-29T08:40:31.960Z,315.00
2022-07-29T08:41:27.224Z,303.75
2022-07-29T08:42:27.223Z,298.13
2022-07-29T08:43:27.262Z,298.13
2022-07-29T08:44:30.492Z,258.75
2022-07-29T08:45:27.339Z,247.50
2022-07-29T08:46:27.274Z,225.00
2022-07-29T08:47:27.285Z,219.38
2022-07-29T08:48:27.276Z,208.13
2022-07-29T08:49:27.375Z,196.88
2022-07-29T08:50:27.292Z,180.00
2022-07-29T08:51:27.318Z,174.38
2022-07-29T08:52:27.322Z,168.75
2022-07-29T08:53:27.354Z,168.75
2022-07-29T08:54:27.331Z,163.13
2022-07-29T08:55:27.333Z,157.50
2022-07-29T08:56:27.339Z,157.50
2022-07-29T08:57:27.348Z,151.88
2022-07-29T08:58:27.362Z,151.88
2022-07-29T08:59:27.358Z,157.50
2022-07-29T09:00:27.365Z,157.50
2022-07-29T09:01:35.972Z,157.50
2022-07-29T09:02:27.413Z,163.13
2022-07-29T09:03:27.410Z,168.75
2022-07-29T09:04:27.396Z,168.75
2022-07-29T09:05:27.435Z,180.00
2022-07-29T09:06:27.413Z,191.25
2022-07-29T09:07:27.419Z,208.13
2022-07-29T09:08:27.428Z,225.00
2022-07-29T09:09:27.429Z,247.50
2022-07-29T09:10:27.432Z,253.13
2022-07-29T09:11:27.441Z,258.75
2022-07-29T09:12:29.518Z,264.38
2022-07-29T09:13:27.461Z,247.50
2022-07-29T09:14:27.476Z,236.25
2022-07-29T09:15:27.483Z,236.25
2022-07-29T09:16:51.926Z,236.25
2022-07-29T09:17:27.563Z,241.88
2022-07-29T09:18:31.219Z,236.25
2022-07-29T09:19:27.498Z,241.88
2022-07-29T09:20:27.503Z,236.25
2022-07-29T09:21:27.515Z,236.25
2022-07-29T09:22:27.517Z,247.50
2022-07-29T09:23:27.568Z,236.25
2022-07-29T09:24:27.527Z,225.00
2022-07-29T09:25:27.539Z,236.25
2022-07-29T09:26:27.545Z,202.50
2022-07-29T09:27:27.572Z,196.88
2022-07-29T09:28:27.550Z,191.25
2022-07-29T09:29:27.569Z,191.25
2022-07-29T09:30:31.876Z,191.25
2022-07-29T09:31:27.608Z,191.25
2022-07-29T09:32:27.593Z,185.63
2022-07-29T09:33:27.590Z,185.63
2022-07-29T09:34:27.601Z,185.63
2022-07-29T09:35:27.639Z,185.63
2022-07-29T09:36:27.621Z,185.63
2022-07-29T09:37:27.615Z,185.63
2022-07-29T09:38:27.610Z,191.25
2022-07-29T09:39:27.639Z,196.88
2022-07-29T09:40:27.643Z,196.88
2022-07-29T09:41:27.634Z,196.88
2022-07-29T09:42:27.634Z,196.88
2022-07-29T09:43:27.655Z,191.25
2022-07-29T09:44:27.668Z,191.25
2022-07-29T09:45:27.660Z,191.25
2022-07-29T09:46:27.730Z,191.25
2022-07-29T09:47:27.708Z,191.25
2022-07-29T09:48:27.690Z,202.50
2022-07-29T09:49:27.783Z,196.88
2022-07-29T09:50:27.691Z,202.50
2022-07-29T09:51:38.045Z,208.13
2022-07-29T09:52:27.707Z,208.13
2022-07-29T09:53:27.707Z,208.13
2022-07-29T09:54:27.718Z,213.75
2022-07-29T09:55:27.715Z,225.00
2022-07-29T09:56:27.732Z,230.63
2022-07-29T09:57:30.878Z,219.38
2022-07-29T09:58:27.791Z,213.75
2022-07-29T09:59:27.754Z,213.75
2022-07-29T10:00:27.773Z,208.13
2022-07-29T10:01:27.793Z,219.38
2022-07-29T10:02:27.769Z,219.38
2022-07-29T10:03:27.810Z,219.38
2022-07-29T10:04:27.775Z,208.13
2022-07-29T10:05:36.595Z,208.13
2022-07-29T10:06:27.818Z,213.75
2022-07-29T10:07:27.794Z,208.13
2022-07-29T10:08:27.814Z,213.75
2022-07-29T10:09:27.814Z,213.75
2022-07-29T10:10:27.811Z,213.75
2022-07-29T10:11:27.829Z,213.75
2022-07-29T10:12:27.828Z,191.25
2022-07-29T10:13:27.864Z,191.25
2022-07-29T10:14:27.881Z,185.63
2022-07-29T10:15:27.853Z,185.63
2022-07-29T10:16:27.905Z,174.38
2022-07-29T10:17:27.865Z,174.38
2022-07-29T10:18:27.874Z,174.38
2022-07-29T10:19:27.879Z,163.13
2022-07-29T10:20:27.873Z,163.13
2022-07-29T10:21:36.215Z,163.13
2022-07-29T10:22:52.020Z,157.50
2022-07-29T10:23:27.988Z,168.75
2022-07-29T10:24:27.904Z,163.13
2022-07-29T10:25:27.957Z,163.13
2022-07-29T10:26:27.911Z,163.13
2022-07-29T10:27:27.908Z,168.75
2022-07-29T10:28:27.928Z,163.13
2022-07-29T10:29:27.924Z,168.75
2022-07-29T10:30:27.935Z,168.75
2022-07-29T10:31:27.983Z,174.38
2022-07-29T10:32:27.960Z,174.38
2022-07-29T10:33:27.950Z,174.38
2022-07-29T10:34:27.966Z,180.00
2022-07-29T10:35:27.962Z,180.00
2022-07-29T10:36:27.960Z,180.00
2022-07-29T10:37:27.977Z,185.63
2022-07-29T10:38:27.976Z,202.50
2022-07-29T10:39:34.384Z,191.25
2022-07-29T10:40:27.979Z,202.50
2022-07-29T10:41:29.091Z,191.25
2022-07-29T10:42:29.585Z,219.38
2022-07-29T10:43:28.002Z,213.75
2022-07-29T10:44:28.009Z,213.75
2022-07-29T10:45:28.012Z,208.13
2022-07-29T10:46:28.108Z,213.75
2022-07-29T10:47:28.027Z,208.13
2022-07-29T10:48:28.030Z,191.25
2022-07-29T10:49:30.489Z,191.25
2022-07-29T10:50:28.044Z,174.38
2022-07-29T10:51:28.047Z,163.13
2022-07-29T10:52:30.321Z,146.25
2022-07-29T10:53:28.081Z,140.63
2022-07-29T10:54:28.063Z,129.38
2022-07-29T10:55:28.094Z,123.75
2022-07-29T10:56:28.078Z,118.13
2022-07-29T10:57:53.926Z,112.50
2022-07-29T10:58:28.085Z,106.88
2022-07-29T10:59:36.065Z,106.88
2022-07-29T11:00:28.098Z,106.88
2022-07-29T11:01:37.761Z,106.88
2022-07-29T11:02:41.523Z,112.50
2022-07-29T11:03:28.153Z,118.13
2022-07-29T11:04:28.129Z,118.13
2022-07-29T11:05:32.204Z,112.50
2022-07-29T11:06:28.340Z,112.50
2022-07-29T11:07:28.138Z,112.50
2022-07-29T11:08:28.405Z,112.50
2022-07-29T11:09:37.742Z,118.13
2022-07-29T11:10:31.348Z,123.75
2022-07-29T11:11:29.725Z,123.75
2022-07-29T11:12:28.172Z,129.38
2022-07-29T11:13:28.178Z,140.63
2022-07-29T11:15:41.446Z,151.88
2022-07-29T11:16:41.450Z,157.50
2022-07-29T11:18:34.459Z,157.50
2022-07-29T11:19:34.451Z,163.13
2022-07-29T11:20:34.457Z,163.13
2022-07-29T11:21:48.909Z,168.75
2022-07-29T11:22:34.470Z,168.75
2022-07-29T11:23:34.790Z,163.13
2022-07-29T11:24:35.115Z,151.88
2022-07-29T11:26:34.500Z,163.13
2022-07-29T11:27:34.506Z,163.13
2022-07-29T11:28:34.499Z,151.88
2022-07-29T11:29:40.048Z,151.88
2022-07-29T11:30:34.511Z,157.50
2022-07-29T11:31:34.520Z,140.63
2022-07-29T11:32:34.535Z,135.00
2022-07-29T11:33:54.058Z,129.38
2022-07-29T11:34:34.867Z,135.00
2022-07-29T11:35:38.164Z,123.75
2022-07-29T11:36:34.553Z,123.75
2022-07-29T11:37:34.579Z,118.13
2022-07-29T11:38:34.554Z,118.13
2022-07-29T11:39:37.003Z,112.50
2022-07-29T11:40:34.582Z,112.50
2022-07-29T11:41:34.577Z,112.50
2022-07-29T11:42:35.321Z,112.50
2022-07-29T11:43:34.589Z,112.50
2022-07-29T11:44:34.610Z,112.50
2022-07-29T11:45:41.305Z,112.50
2022-07-29T11:46:34.628Z,101.25
2022-07-29T11:47:38.244Z,106.88
2022-07-29T11:48:34.826Z,101.25
2022-07-29T11:49:34.646Z,101.25
2022-07-29T11:50:34.610Z,101.25
2022-07-29T11:51:34.635Z,101.25
2022-07-29T11:52:34.659Z,101.25
2022-07-29T11:53:34.628Z,101.25
2022-07-29T11:54:38.824Z,101.25
2022-07-29T11:55:34.649Z,106.88
2022-07-29T11:56:34.655Z,106.88
2022-07-29T11:57:36.525Z,106.88
2022-07-29T11:58:34.692Z,112.50
2022-07-29T11:59:35.319Z,112.50
2022-07-29T12:00:34.684Z,112.50
2022-07-29T12:01:34.699Z,112.50
2022-07-29T12:02:37.412Z,112.50
2022-07-29T12:04:34.696Z,106.88
2022-07-29T12:05:36.198Z,112.50
2022-07-29T12:06:34.709Z,112.50
2022-07-29T12:07:01.291Z,157.50
2022-07-29T12:07:02.501Z,112.50
2022-07-29T12:07:35.452Z,112.50
2022-07-29T12:08:34.721Z,118.13
2022-07-29T12:09:40.329Z,123.75
2022-07-29T12:10:34.746Z,129.38
2022-07-29T12:11:34.757Z,129.38
2022-07-29T12:12:34.759Z,123.75
2022-07-29T12:13:37.515Z,101.25
2022-07-29T12:14:34.741Z,123.75
2022-07-29T12:15:46.062Z,112.50
2022-07-29T12:16:34.784Z,123.75
2022-07-29T12:17:34.765Z,123.75
2022-07-29T12:18:34.782Z,129.38
2022-07-29T12:19:34.792Z,118.13
2022-07-29T12:20:34.799Z,123.75
2022-07-29T12:21:34.791Z,106.88
2022-07-29T12:22:34.918Z,106.88
2022-07-29T12:23:35.568Z,112.50
2022-07-29T12:24:34.813Z,129.38
2022-07-29T12:25:34.925Z,129.38
2022-07-29T12:26:35.733Z,129.38
2022-07-29T12:27:34.859Z,123.75
2022-07-29T12:28:34.841Z,123.75
2022-07-29T12:29:35.950Z,123.75
2022-07-29T12:30:34.841Z,129.38
2022-07-29T12:31:43.988Z,112.50
2022-07-29T12:32:34.942Z,106.88
2022-07-29T12:33:34.861Z,101.25
2022-07-29T12:34:34.860Z,106.88
2022-07-29T12:35:34.877Z,112.50
2022-07-29T12:36:34.867Z,135.00
2022-07-29T12:37:40.705Z,135.00
2022-07-29T12:38:34.894Z,135.00
2022-07-29T12:39:34.895Z,135.00
2022-07-29T12:40:34.917Z,129.38
2022-07-29T12:41:34.935Z,140.63
2022-07-29T12:42:34.923Z,129.38
2022-07-29T12:43:34.923Z,140.63
2022-07-29T12:44:34.937Z,140.63
2022-07-29T12:45:34.925Z,95.63
2022-07-29T12:46:34.984Z,129.38
2022-07-29T12:47:35.016Z,140.63
2022-07-29T12:48:34.961Z,140.63
2022-07-29T12:49:38.175Z,140.63
2022-07-29T12:50:34.965Z,140.63
2022-07-29T12:51:34.991Z,146.25
2022-07-29T12:52:34.988Z,146.25
2022-07-29T12:53:34.975Z,135.00
2022-07-29T12:54:34.968Z,135.00
2022-07-29T12:55:35.029Z,129.38
2022-07-29T12:56:43.724Z,112.50
2022-07-29T12:57:35.010Z,112.50
2022-07-29T12:58:35.042Z,112.50
2022-07-29T12:59:35.013Z,106.88
2022-07-29T13:00:35.061Z,106.88
2022-07-29T13:01:35.026Z,106.88
2022-07-29T13:02:35.076Z,106.88
2022-07-29T13:03:35.774Z,106.88